sensor_id;sensor_type;location;lat;lon;timestamp;pressure;altitude;pressure_sealevel;temperature;humidity
73936;BME280;62287;50.858;0.252;2022-11-15T00:00:19;100411.73;;;15.54;46.46
73936;BME280;62287;50.858;0.252;2022-11-15T00:00:51;100410.30;;;15.28;46.49
73936;BME280;62287;50.858;0.252;2022-11-15T00:01:24;100412.52;;;15.90;46.34
73936;BME280;62287;50.858;0.252;2022-11-15T00:01:55;100415.24;;;15.39;46.33
73936;BME280;62287;50.858;0.252;2022-11-15T00:02:26;100419.42;;;15.26;46.16
73936;BME280;62287;50.858;0.252;2022-11-15T00:02:57;100416.23;;;15.77;44.09
73936;BME280;62287;50.858;0.252;2022-11-15T00:03:29;100417.78;;;15.94;45.77
73936;BME280;62287;50.858;0.252;2022-11-15T00:04:00;100415.89;;;15.41;46.26
73936;BME280;62287;50.858;0.252;2022-11-15T00:04:31;100417.86;;;15.50;46.01
73936;BME280;62287;50.858;0.252;2022-11-15T00:05:03;100416.75;;;15.90;46.03
73936;BME280;62287;50.858;0.252;2022-11-15T00:05:35;100415.84;;;15.47;46.11
73936;BME280;62287;50.858;0.252;2022-11-15T00:06:07;100416.67;;;15.45;46.30
73936;BME280;62287;50.858;0.252;2022-11-15T00:06:40;100416.08;;;15.48;46.28
73936;BME280;62287;50.858;0.252;2022-11-15T00:07:12;100410.22;;;15.55;45.42
73936;BME280;62287;50.858;0.252;2022-11-15T00:07:44;100409.47;;;15.52;44.80
73936;BME280;62287;50.858;0.252;2022-11-15T00:08:16;100410.51;;;15.85;45.05
73936;BME280;62287;50.858;0.252;2022-11-15T00:08:52;100407.06;;;15.44;46.17
73936;BME280;62287;50.858;0.252;2022-11-15T00:09:23;100406.55;;;15.19;46.57
73936;BME280;62287;50.858;0.252;2022-11-15T00:09:55;100407.83;;;15.13;46.35
73936;BME280;62287;50.858;0.252;2022-11-15T00:10:25;100406.71;;;15.99;45.93
73936;BME280;62287;50.858;0.252;2022-11-15T00:10:58;100403.88;;;15.63;45.80
73936;BME280;62287;50.858;0.252;2022-11-15T00:11:29;100401.99;;;15.48;45.97
73936;BME280;62287;50.858;0.252;2022-11-15T00:12:00;100405.33;;;15.61;45.13
73936;BME280;62287;50.858;0.252;2022-11-15T00:12:31;100405.19;;;15.28;46.45
73936;BME280;62287;50.858;0.252;2022-11-15T00:13:05;100402.04;;;15.13;46.80
73936;BME280;62287;50.858;0.252;2022-11-15T00:13:36;100403.86;;;15.37;46.63
73936;BME280;62287;50.858;0.252;2022-11-15T00:14:07;100402.34;;;15.54;46.49
73936;BME280;62287;50.858;0.252;2022-11-15T00:14:38;100401.34;;;15.50;44.78
73936;BME280;62287;50.858;0.252;2022-11-15T00:15:10;100398.98;;;15.39;45.58
73936;BME280;62287;50.858;0.252;2022-11-15T00:15:41;100397.53;;;15.90;46.13
73936;BME280;62287;50.858;0.252;2022-11-15T00:16:12;100398.30;;;15.44;46.38
73936;BME280;62287;50.858;0.252;2022-11-15T00:16:43;100399.30;;;15.63;46.51
73936;BME280;62287;50.858;0.252;2022-11-15T00:17:19;100396.93;;;15.37;46.61
73936;BME280;62287;50.858;0.252;2022-11-15T00:17:51;100396.05;;;15.18;46.79
73936;BME280;62287;50.858;0.252;2022-11-15T00:18:21;100395.88;;;15.52;43.53
73936;BME280;62287;50.858;0.252;2022-11-15T00:18:54;100394.26;;;15.32;46.35
73936;BME280;62287;50.858;0.252;2022-11-15T00:19:25;100392.47;;;15.60;41.76
73936;BME280;62287;50.858;0.252;2022-11-15T00:19:56;100389.89;;;15.51;40.77
73936;BME280;62287;50.858;0.252;2022-11-15T00:20:29;100390.65;;;15.45;45.15
73936;BME280;62287;50.858;0.252;2022-11-15T00:21:04;100392.54;;;14.89;46.23
73936;BME280;62287;50.858;0.252;2022-11-15T00:21:36;100388.31;;;15.49;46.48
73936;BME280;62287;50.858;0.252;2022-11-15T00:22:07;100389.58;;;14.77;46.77
73936;BME280;62287;50.858;0.252;2022-11-15T00:22:39;100389.14;;;15.27;46.68
73936;BME280;62287;50.858;0.252;2022-11-15T00:23:11;100386.54;;;15.37;46.43
73936;BME280;62287;50.858;0.252;2022-11-15T00:23:42;100388.56;;;15.28;46.56
73936;BME280;62287;50.858;0.252;2022-11-15T00:24:13;100386.88;;;15.54;45.70
73936;BME280;62287;50.858;0.252;2022-11-15T00:24:44;100384.48;;;15.36;46.33
73936;BME280;62287;50.858;0.252;2022-11-15T00:25:16;100384.68;;;15.24;46.56
73936;BME280;62287;50.858;0.252;2022-11-15T00:25:51;100384.75;;;14.82;46.72
73936;BME280;62287;50.858;0.252;2022-11-15T00:26:25;100383.75;;;15.29;46.39
73936;BME280;62287;50.858;0.252;2022-11-15T00:26:56;100381.31;;;15.63;46.46
73936;BME280;62287;50.858;0.252;2022-11-15T00:27:27;100380.70;;;15.59;45.90
73936;BME280;62287;50.858;0.252;2022-11-15T00:27:59;100379.98;;;15.42;46.19
73936;BME280;62287;50.858;0.252;2022-11-15T00:28:31;100378.99;;;15.44;46.25
73936;BME280;62287;50.858;0.252;2022-11-15T00:29:04;100377.56;;;15.12;46.17
73936;BME280;62287;50.858;0.252;2022-11-15T00:29:35;100374.95;;;15.82;46.33
73936;BME280;62287;50.858;0.252;2022-11-15T00:30:06;100372.30;;;15.62;46.58
73936;BME280;62287;50.858;0.252;2022-11-15T00:30:39;100371.73;;;15.58;46.54
73936;BME280;62287;50.858;0.252;2022-11-15T00:31:12;100371.19;;;15.10;46.28
73936;BME280;62287;50.858;0.252;2022-11-15T00:31:44;100370.69;;;15.39;46.32
73936;BME280;62287;50.858;0.252;2022-11-15T00:32:16;100369.41;;;14.91;46.46
73936;BME280;62287;50.858;0.252;2022-11-15T00:32:47;100370.80;;;15.38;46.40
73936;BME280;62287;50.858;0.252;2022-11-15T00:33:18;100369.21;;;15.50;46.60
73936;BME280;62287;50.858;0.252;2022-11-15T00:33:49;100367.66;;;15.26;46.55
73936;BME280;62287;50.858;0.252;2022-11-15T00:34:21;100368.25;;;15.38;46.42
73936;BME280;62287;50.858;0.252;2022-11-15T00:34:53;100367.02;;;15.80;46.21
73936;BME280;62287;50.858;0.252;2022-11-15T00:35:24;100367.88;;;15.36;45.99
73936;BME280;62287;50.858;0.252;2022-11-15T00:35:59;100365.34;;;15.79;45.38
73936;BME280;62287;50.858;0.252;2022-11-15T00:36:33;100366.90;;;15.57;45.83
73936;BME280;62287;50.858;0.252;2022-11-15T00:37:06;100367.19;;;15.60;45.92
73936;BME280;62287;50.858;0.252;2022-11-15T00:37:47;100369.57;;;15.63;45.53
73936;BME280;62287;50.858;0.252;2022-11-15T00:38:18;100369.86;;;15.62;45.96
73936;BME280;62287;50.858;0.252;2022-11-15T00:38:49;100367.34;;;15.57;45.92
73936;BME280;62287;50.858;0.252;2022-11-15T00:39:20;100367.13;;;15.44;46.11
73936;BME280;62287;50.858;0.252;2022-11-15T00:39:52;100365.08;;;15.42;46.14
73936;BME280;62287;50.858;0.252;2022-11-15T00:40:23;100362.31;;;15.54;45.97
73936;BME280;62287;50.858;0.252;2022-11-15T00:40:54;100365.02;;;15.58;45.90
73936;BME280;62287;50.858;0.252;2022-11-15T00:41:25;100360.47;;;15.26;45.82
73936;BME280;62287;50.858;0.252;2022-11-15T00:41:56;100357.56;;;15.78;45.62
73936;BME280;62287;50.858;0.252;2022-11-15T00:42:27;100357.53;;;15.96;45.38
73936;BME280;62287;50.858;0.252;2022-11-15T00:43:01;100357.65;;;16.05;44.46
73936;BME280;62287;50.858;0.252;2022-11-15T00:43:32;100355.14;;;16.13;45.01
73936;BME280;62287;50.858;0.252;2022-11-15T00:44:04;100358.80;;;15.42;45.38
73936;BME280;62287;50.858;0.252;2022-11-15T00:44:35;100352.63;;;15.95;45.36
73936;BME280;62287;50.858;0.252;2022-11-15T00:45:07;100354.62;;;15.29;45.56
73936;BME280;62287;50.858;0.252;2022-11-15T00:45:38;100353.03;;;16.08;45.24
73936;BME280;62287;50.858;0.252;2022-11-15T00:46:09;100349.75;;;16.15;45.43
73936;BME280;62287;50.858;0.252;2022-11-15T00:46:40;100350.72;;;16.15;45.05
73936;BME280;62287;50.858;0.252;2022-11-15T00:47:12;100351.14;;;15.61;45.31
73936;BME280;62287;50.858;0.252;2022-11-15T00:47:45;100354.39;;;15.71;45.61
73936;BME280;62287;50.858;0.252;2022-11-15T00:48:17;100354.25;;;15.79;45.71
73936;BME280;62287;50.858;0.252;2022-11-15T00:48:48;100350.04;;;15.65;45.67
73936;BME280;62287;50.858;0.252;2022-11-15T00:49:19;100348.83;;;15.98;45.41
73936;BME280;62287;50.858;0.252;2022-11-15T00:49:50;100347.40;;;15.44;45.27
73936;BME280;62287;50.858;0.252;2022-11-15T00:50:21;100348.45;;;15.66;45.34
73936;BME280;62287;50.858;0.252;2022-11-15T00:50:53;100346.70;;;15.95;45.53
73936;BME280;62287;50.858;0.252;2022-11-15T00:51:28;100347.15;;;15.80;45.55
73936;BME280;62287;50.858;0.252;2022-11-15T00:51:59;100345.06;;;15.85;45.59
73936;BME280;62287;50.858;0.252;2022-11-15T00:52:31;100342.29;;;16.00;45.49
73936;BME280;62287;50.858;0.252;2022-11-15T00:53:02;100342.65;;;15.59;45.46
73936;BME280;62287;50.858;0.252;2022-11-15T00:53:33;100341.06;;;15.75;45.55
73936;BME280;62287;50.858;0.252;2022-11-15T00:54:04;100345.18;;;16.06;45.56
73936;BME280;62287;50.858;0.252;2022-11-15T00:54:35;100338.75;;;16.05;45.56
73936;BME280;62287;50.858;0.252;2022-11-15T00:55:07;100337.02;;;16.03;45.75
73936;BME280;62287;50.858;0.252;2022-11-15T00:55:38;100339.25;;;15.97;45.86
73936;BME280;62287;50.858;0.252;2022-11-15T00:56:10;100335.59;;;15.62;45.89
73936;BME280;62287;50.858;0.252;2022-11-15T00:56:41;100338.16;;;15.73;46.07
73936;BME280;62287;50.858;0.252;2022-11-15T00:57:13;100336.08;;;15.67;46.24
73936;BME280;62287;50.858;0.252;2022-11-15T00:57:45;100335.37;;;15.74;46.30
73936;BME280;62287;50.858;0.252;2022-11-15T00:58:17;100332.41;;;16.14;46.03
73936;BME280;62287;50.858;0.252;2022-11-15T00:58:48;100329.78;;;15.73;46.34
73936;BME280;62287;50.858;0.252;2022-11-15T00:59:19;100328.47;;;15.88;45.88
73936;BME280;62287;50.858;0.252;2022-11-15T00:59:50;100328.87;;;15.60;46.39
73936;BME280;62287;50.858;0.252;2022-11-15T01:00:21;100325.74;;;15.56;46.64
73936;BME280;62287;50.858;0.252;2022-11-15T01:00:52;100324.43;;;15.70;46.82
73936;BME280;62287;50.858;0.252;2022-11-15T01:01:24;100322.06;;;15.55;46.62
73936;BME280;62287;50.858;0.252;2022-11-15T01:01:55;100320.36;;;15.38;46.90
73936;BME280;62287;50.858;0.252;2022-11-15T01:02:26;100318.09;;;15.34;46.69
73936;BME280;62287;50.858;0.252;2022-11-15T01:02:58;100319.14;;;15.55;47.00
73936;BME280;62287;50.858;0.252;2022-11-15T01:03:33;100318.62;;;15.29;46.99
73936;BME280;62287;50.858;0.252;2022-11-15T01:04:04;100316.59;;;16.39;41.95
73936;BME280;62287;50.858;0.252;2022-11-15T01:04:41;100314.14;;;15.74;46.20
73936;BME280;62287;50.858;0.252;2022-11-15T01:05:13;100315.74;;;15.64;46.89
73936;BME280;62287;50.858;0.252;2022-11-15T01:05:44;100313.85;;;15.46;47.25
73936;BME280;62287;50.858;0.252;2022-11-15T01:06:15;100315.03;;;15.95;47.19
73936;BME280;62287;50.858;0.252;2022-11-15T01:06:52;100309.78;;;15.66;46.88
73936;BME280;62287;50.858;0.252;2022-11-15T01:07:24;100309.99;;;15.81;46.34
73936;BME280;62287;50.858;0.252;2022-11-15T01:07:55;100309.18;;;16.24;45.58
73936;BME280;62287;50.858;0.252;2022-11-15T01:08:26;100303.99;;;16.05;46.02
73936;BME280;62287;50.858;0.252;2022-11-15T01:08:57;100308.13;;;16.16;44.93
73936;BME280;62287;50.858;0.252;2022-11-15T01:09:28;100306.25;;;15.93;45.96
73936;BME280;62287;50.858;0.252;2022-11-15T01:10:00;100306.95;;;15.85;46.07
73936;BME280;62287;50.858;0.252;2022-11-15T01:10:31;100303.89;;;16.24;46.08
73936;BME280;62287;50.858;0.252;2022-11-15T01:11:03;100307.67;;;15.84;45.96
73936;BME280;62287;50.858;0.252;2022-11-15T01:11:34;100303.17;;;15.36;46.14
73936;BME280;62287;50.858;0.252;2022-11-15T01:12:06;100305.84;;;15.81;46.07
73936;BME280;62287;50.858;0.252;2022-11-15T01:12:37;100306.27;;;15.50;46.34
73936;BME280;62287;50.858;0.252;2022-11-15T01:13:08;100304.92;;;15.50;45.88
73936;BME280;62287;50.858;0.252;2022-11-15T01:13:39;100300.53;;;16.16;45.59
73936;BME280;62287;50.858;0.252;2022-11-15T01:14:13;100304.94;;;15.98;45.77
73936;BME280;62287;50.858;0.252;2022-11-15T01:14:44;100304.72;;;15.79;45.90
73936;BME280;62287;50.858;0.252;2022-11-15T01:15:15;100300.77;;;16.38;44.49
73936;BME280;62287;50.858;0.252;2022-11-15T01:15:47;100299.58;;;16.38;45.40
73936;BME280;62287;50.858;0.252;2022-11-15T01:16:19;100296.90;;;15.79;45.85
73936;BME280;62287;50.858;0.252;2022-11-15T01:16:55;100296.60;;;15.93;45.68
73936;BME280;62287;50.858;0.252;2022-11-15T01:17:26;100295.32;;;15.94;45.79
73936;BME280;62287;50.858;0.252;2022-11-15T01:17:58;100292.06;;;16.31;45.09
73936;BME280;62287;50.858;0.252;2022-11-15T01:18:29;100292.39;;;15.94;45.51
73936;BME280;62287;50.858;0.252;2022-11-15T01:19:01;100290.52;;;15.92;45.72
73936;BME280;62287;50.858;0.252;2022-11-15T01:19:32;100290.47;;;15.56;45.79
73936;BME280;62287;50.858;0.252;2022-11-15T01:20:06;100289.70;;;15.68;44.62
73936;BME280;62287;50.858;0.252;2022-11-15T01:20:40;100289.90;;;16.02;45.32
73936;BME280;62287;50.858;0.252;2022-11-15T01:21:14;100288.79;;;15.44;45.74
73936;BME280;62287;50.858;0.252;2022-11-15T01:21:48;100288.01;;;15.80;45.84
73936;BME280;62287;50.858;0.252;2022-11-15T01:22:19;100286.42;;;15.82;45.83
73936;BME280;62287;50.858;0.252;2022-11-15T01:22:50;100286.47;;;15.81;45.90
73936;BME280;62287;50.858;0.252;2022-11-15T01:23:21;100289.78;;;15.92;45.68
73936;BME280;62287;50.858;0.252;2022-11-15T01:23:59;100286.43;;;16.02;45.57
73936;BME280;62287;50.858;0.252;2022-11-15T01:24:30;100287.27;;;15.88;45.85
73936;BME280;62287;50.858;0.252;2022-11-15T01:25:03;100285.48;;;15.51;46.04
73936;BME280;62287;50.858;0.252;2022-11-15T01:25:34;100285.28;;;15.88;44.90
73936;BME280;62287;50.858;0.252;2022-11-15T01:26:06;100282.62;;;15.81;45.88
73936;BME280;62287;50.858;0.252;2022-11-15T01:26:39;100285.49;;;16.54;45.48
73936;BME280;62287;50.858;0.252;2022-11-15T01:27:10;100282.24;;;16.11;45.53
73936;BME280;62287;50.858;0.252;2022-11-15T01:27:41;100278.67;;;15.73;45.87
73936;BME280;62287;50.858;0.252;2022-11-15T01:28:12;100282.27;;;16.10;45.93
73936;BME280;62287;50.858;0.252;2022-11-15T01:28:43;100285.01;;;16.05;45.58
73936;BME280;62287;50.858;0.252;2022-11-15T01:29:14;100281.99;;;15.58;45.71
73936;BME280;62287;50.858;0.252;2022-11-15T01:29:45;100280.25;;;15.97;45.77
73936;BME280;62287;50.858;0.252;2022-11-15T01:30:17;100280.87;;;16.06;45.30
73936;BME280;62287;50.858;0.252;2022-11-15T01:30:48;100278.27;;;16.16;45.37
73936;BME280;62287;50.858;0.252;2022-11-15T01:31:20;100279.27;;;15.96;45.44
73936;BME280;62287;50.858;0.252;2022-11-15T01:31:53;100277.77;;;15.85;45.69
73936;BME280;62287;50.858;0.252;2022-11-15T01:32:25;100277.01;;;15.44;45.41
73936;BME280;62287;50.858;0.252;2022-11-15T01:32:56;100274.72;;;15.74;45.42
73936;BME280;62287;50.858;0.252;2022-11-15T01:33:28;100271.30;;;16.39;45.10
73936;BME280;62287;50.858;0.252;2022-11-15T01:33:59;100272.69;;;16.01;44.83
73936;BME280;62287;50.858;0.252;2022-11-15T01:34:31;100274.16;;;15.88;44.96
73936;BME280;62287;50.858;0.252;2022-11-15T01:35:02;100271.41;;;15.85;45.45
73936;BME280;62287;50.858;0.252;2022-11-15T01:35:38;100269.25;;;16.25;45.44
73936;BME280;62287;50.858;0.252;2022-11-15T01:36:12;100264.34;;;15.59;45.76
73936;BME280;62287;50.858;0.252;2022-11-15T01:36:43;100261.84;;;15.29;45.80
73936;BME280;62287;50.858;0.252;2022-11-15T01:37:14;100261.63;;;15.58;45.87
73936;BME280;62287;50.858;0.252;2022-11-15T01:37:47;100258.89;;;15.68;45.77
73936;BME280;62287;50.858;0.252;2022-11-15T01:38:18;100258.63;;;15.93;44.35
73936;BME280;62287;50.858;0.252;2022-11-15T01:38:58;100254.42;;;15.97;45.04
73936;BME280;62287;50.858;0.252;2022-11-15T01:39:35;100255.12;;;15.80;45.50
73936;BME280;62287;50.858;0.252;2022-11-15T01:40:08;100255.57;;;16.30;45.52
73936;BME280;62287;50.858;0.252;2022-11-15T01:40:39;100255.37;;;15.34;45.69
73936;BME280;62287;50.858;0.252;2022-11-15T01:41:23;100254.12;;;15.82;44.94
73936;BME280;62287;50.858;0.252;2022-11-15T01:41:55;100251.38;;;16.07;45.71
73936;BME280;62287;50.858;0.252;2022-11-15T01:42:26;100253.18;;;16.24;45.49
73936;BME280;62287;50.858;0.252;2022-11-15T01:42:57;100252.58;;;15.84;45.44
73936;BME280;62287;50.858;0.252;2022-11-15T01:43:30;100247.62;;;16.22;45.47
73936;BME280;62287;50.858;0.252;2022-11-15T01:44:38;100247.74;;;15.83;45.23
73936;BME280;62287;50.858;0.252;2022-11-15T01:45:14;100245.19;;;15.71;45.20
73936;BME280;62287;50.858;0.252;2022-11-15T01:45:46;100246.23;;;15.11;45.94
73936;BME280;62287;50.858;0.252;2022-11-15T01:46:27;100243.32;;;15.69;45.93
73936;BME280;62287;50.858;0.252;2022-11-15T01:47:01;100239.85;;;16.27;45.60
73936;BME280;62287;50.858;0.252;2022-11-15T01:47:36;100239.56;;;15.81;45.34
73936;BME280;62287;50.858;0.252;2022-11-15T01:48:10;100239.45;;;16.16;45.32
73936;BME280;62287;50.858;0.252;2022-11-15T01:48:42;100235.91;;;15.91;45.63
73936;BME280;62287;50.858;0.252;2022-11-15T01:49:17;100234.18;;;15.87;45.76
73936;BME280;62287;50.858;0.252;2022-11-15T01:49:53;100231.86;;;16.41;43.18
73936;BME280;62287;50.858;0.252;2022-11-15T01:50:29;100232.19;;;15.66;45.16
73936;BME280;62287;50.858;0.252;2022-11-15T01:51:06;100229.23;;;15.91;45.32
73936;BME280;62287;50.858;0.252;2022-11-15T01:51:40;100230.89;;;15.87;44.78
73936;BME280;62287;50.858;0.252;2022-11-15T01:52:15;100228.08;;;15.97;44.90
73936;BME280;62287;50.858;0.252;2022-11-15T01:52:48;100227.97;;;15.89;44.42
73936;BME280;62287;50.858;0.252;2022-11-15T01:53:21;100223.01;;;16.27;45.05
73936;BME280;62287;50.858;0.252;2022-11-15T01:53:56;100226.65;;;15.97;45.15
73936;BME280;62287;50.858;0.252;2022-11-15T01:54:29;100223.71;;;15.83;45.41
73936;BME280;62287;50.858;0.252;2022-11-15T01:55:05;100222.77;;;15.37;45.40
73936;BME280;62287;50.858;0.252;2022-11-15T01:55:38;100221.53;;;15.65;44.69
73936;BME280;62287;50.858;0.252;2022-11-15T01:56:13;100220.74;;;16.29;45.28
73936;BME280;62287;50.858;0.252;2022-11-15T01:56:47;100220.89;;;15.88;45.21
73936;BME280;62287;50.858;0.252;2022-11-15T01:57:20;100220.72;;;16.39;45.05
73936;BME280;62287;50.858;0.252;2022-11-15T01:57:53;100218.54;;;16.32;45.23
73936;BME280;62287;50.858;0.252;2022-11-15T01:58:26;100217.88;;;16.29;44.40
73936;BME280;62287;50.858;0.252;2022-11-15T01:58:58;100219.01;;;15.52;44.85
73936;BME280;62287;50.858;0.252;2022-11-15T01:59:31;100214.69;;;15.70;45.33
73936;BME280;62287;50.858;0.252;2022-11-15T02:00:05;100218.62;;;15.90;45.03
73936;BME280;62287;50.858;0.252;2022-11-15T02:00:36;100217.03;;;15.86;45.11
73936;BME280;62287;50.858;0.252;2022-11-15T02:01:07;100215.71;;;15.96;44.99
73936;BME280;62287;50.858;0.252;2022-11-15T02:01:38;100217.89;;;16.28;45.04
73936;BME280;62287;50.858;0.252;2022-11-15T02:02:10;100212.90;;;16.05;44.95
73936;BME280;62287;50.858;0.252;2022-11-15T02:02:41;100214.47;;;15.85;45.05
73936;BME280;62287;50.858;0.252;2022-11-15T02:03:12;100212.82;;;15.69;44.20
73936;BME280;62287;50.858;0.252;2022-11-15T02:03:48;100214.28;;;15.91;44.74
73936;BME280;62287;50.858;0.252;2022-11-15T02:04:24;100211.88;;;15.84;44.90
73936;BME280;62287;50.858;0.252;2022-11-15T02:04:56;100213.00;;;16.35;44.49
73936;BME280;62287;50.858;0.252;2022-11-15T02:05:27;100211.27;;;16.30;44.95
73936;BME280;62287;50.858;0.252;2022-11-15T02:05:59;100210.31;;;16.11;44.26
73936;BME280;62287;50.858;0.252;2022-11-15T02:06:31;100212.10;;;15.98;44.73
73936;BME280;62287;50.858;0.252;2022-11-15T02:07:03;100213.76;;;15.79;44.99
73936;BME280;62287;50.858;0.252;2022-11-15T02:07:36;100211.53;;;15.89;44.48
73936;BME280;62287;50.858;0.252;2022-11-15T02:08:08;100206.14;;;16.49;44.38
73936;BME280;62287;50.858;0.252;2022-11-15T02:08:39;100203.42;;;16.60;44.40
73936;BME280;62287;50.858;0.252;2022-11-15T02:09:11;100207.43;;;15.96;44.09
73936;BME280;62287;50.858;0.252;2022-11-15T02:09:43;100205.06;;;16.29;44.68
73936;BME280;62287;50.858;0.252;2022-11-15T02:10:19;100202.97;;;16.00;44.76
73936;BME280;62287;50.858;0.252;2022-11-15T02:10:51;100202.88;;;16.02;44.26
73936;BME280;62287;50.858;0.252;2022-11-15T02:11:21;100201.61;;;16.37;44.67
73936;BME280;62287;50.858;0.252;2022-11-15T02:11:54;100200.86;;;16.14;44.37
73936;BME280;62287;50.858;0.252;2022-11-15T02:12:26;100200.61;;;16.09;44.59
73936;BME280;62287;50.858;0.252;2022-11-15T02:12:59;100200.20;;;16.40;44.61
73936;BME280;62287;50.858;0.252;2022-11-15T02:13:31;100194.10;;;15.75;44.50
73936;BME280;62287;50.858;0.252;2022-11-15T02:14:03;100196.97;;;16.02;44.09
73936;BME280;62287;50.858;0.252;2022-11-15T02:14:36;100194.28;;;15.66;43.45
73936;BME280;62287;50.858;0.252;2022-11-15T02:15:10;100190.87;;;15.77;44.05
73936;BME280;62287;50.858;0.252;2022-11-15T02:15:48;100191.41;;;16.02;43.89
73936;BME280;62287;50.858;0.252;2022-11-15T02:16:29;100190.21;;;16.05;44.14
73936;BME280;62287;50.858;0.252;2022-11-15T02:17:11;100188.08;;;15.83;43.53
73936;BME280;62287;50.858;0.252;2022-11-15T02:17:59;100186.57;;;16.04;44.37
73936;BME280;62287;50.858;0.252;2022-11-15T02:18:34;100184.65;;;15.99;44.52
73936;BME280;62287;50.858;0.252;2022-11-15T02:19:17;100183.91;;;15.66;43.89
73936;BME280;62287;50.858;0.252;2022-11-15T02:20:29;100185.60;;;16.01;44.34
73936;BME280;62287;50.858;0.252;2022-11-15T02:21:11;100184.47;;;16.51;44.06
73936;BME280;62287;50.858;0.252;2022-11-15T02:21:49;100186.01;;;16.32;44.34
73936;BME280;62287;50.858;0.252;2022-11-15T02:22:37;100185.31;;;16.06;44.13
73936;BME280;62287;50.858;0.252;2022-11-15T02:26:01;100177.17;;;16.20;44.36
73936;BME280;62287;50.858;0.252;2022-11-15T02:27:25;100175.09;;;16.13;42.42
73936;BME280;62287;50.858;0.252;2022-11-15T02:28:20;100172.80;;;16.24;44.00
73936;BME280;62287;50.858;0.252;2022-11-15T02:29:02;100170.71;;;15.87;44.23
73936;BME280;62287;50.858;0.252;2022-11-15T02:29:48;100165.16;;;16.30;43.76
73936;BME280;62287;50.858;0.252;2022-11-15T02:30:35;100160.37;;;16.48;43.85
73936;BME280;62287;50.858;0.252;2022-11-15T02:31:11;100154.97;;;16.35;43.94
73936;BME280;62287;50.858;0.252;2022-11-15T02:31:48;100159.66;;;15.79;44.17
73936;BME280;62287;50.858;0.252;2022-11-15T02:32:25;100157.46;;;15.83;44.09
73936;BME280;62287;50.858;0.252;2022-11-15T02:33:06;100153.84;;;16.11;43.77
73936;BME280;62287;50.858;0.252;2022-11-15T02:33:51;100155.60;;;15.79;43.72
73936;BME280;62287;50.858;0.252;2022-11-15T02:34:28;100154.45;;;16.18;43.70
73936;BME280;62287;50.858;0.252;2022-11-15T02:35:12;100155.89;;;16.32;43.84
73936;BME280;62287;50.858;0.252;2022-11-15T02:35:52;100152.77;;;15.69;43.62
73936;BME280;62287;50.858;0.252;2022-11-15T02:36:35;100149.54;;;16.20;43.55
73936;BME280;62287;50.858;0.252;2022-11-15T02:37:10;100146.51;;;16.08;43.59
73936;BME280;62287;50.858;0.252;2022-11-15T02:37:45;100146.57;;;15.39;43.85
73936;BME280;62287;50.858;0.252;2022-11-15T02:38:25;100148.32;;;16.18;43.73
73936;BME280;62287;50.858;0.252;2022-11-15T02:39:15;100144.34;;;16.24;42.39
73936;BME280;62287;50.858;0.252;2022-11-15T02:39:54;100140.70;;;15.94;43.17
73936;BME280;62287;50.858;0.252;2022-11-15T02:40:37;100140.85;;;16.35;43.22
73936;BME280;62287;50.858;0.252;2022-11-15T02:41:12;100144.80;;;16.48;43.20
73936;BME280;62287;50.858;0.252;2022-11-15T02:41:48;100145.10;;;16.87;43.01
73936;BME280;62287;50.858;0.252;2022-11-15T02:42:25;100142.83;;;16.35;43.11
73936;BME280;62287;50.858;0.252;2022-11-15T02:43:02;100143.70;;;16.20;43.03
73936;BME280;62287;50.858;0.252;2022-11-15T02:43:38;100138.41;;;16.73;42.94
73936;BME280;62287;50.858;0.252;2022-11-15T02:44:14;100138.51;;;16.36;42.97
73936;BME280;62287;50.858;0.252;2022-11-15T02:44:49;100137.53;;;16.25;43.10
73936;BME280;62287;50.858;0.252;2022-11-15T02:45:24;100132.86;;;15.85;43.05
73936;BME280;62287;50.858;0.252;2022-11-15T02:46:03;100132.60;;;16.02;42.98
73936;BME280;62287;50.858;0.252;2022-11-15T02:46:41;100131.57;;;16.36;42.93
73936;BME280;62287;50.858;0.252;2022-11-15T02:47:16;100133.93;;;15.77;43.12
73936;BME280;62287;50.858;0.252;2022-11-15T02:47:51;100132.14;;;16.31;43.15
73936;BME280;62287;50.858;0.252;2022-11-15T02:48:24;100128.73;;;16.31;43.12
73936;BME280;62287;50.858;0.252;2022-11-15T02:48:56;100127.05;;;16.31;43.02
73936;BME280;62287;50.858;0.252;2022-11-15T02:49:29;100123.48;;;16.27;42.63
73936;BME280;62287;50.858;0.252;2022-11-15T02:50:06;100121.42;;;16.17;42.50
73936;BME280;62287;50.858;0.252;2022-11-15T02:50:38;100123.82;;;16.15;42.77
73936;BME280;62287;50.858;0.252;2022-11-15T02:51:10;100120.21;;;16.72;42.90
73936;BME280;62287;50.858;0.252;2022-11-15T02:51:44;100119.27;;;16.18;42.75
73936;BME280;62287;50.858;0.252;2022-11-15T02:52:16;100123.29;;;16.25;42.60
73936;BME280;62287;50.858;0.252;2022-11-15T02:52:49;100120.41;;;16.16;42.81
73936;BME280;62287;50.858;0.252;2022-11-15T02:53:24;100121.41;;;16.30;43.00
73936;BME280;62287;50.858;0.252;2022-11-15T02:53:55;100116.64;;;16.19;42.49
73936;BME280;62287;50.858;0.252;2022-11-15T02:54:29;100116.84;;;15.70;42.77
73936;BME280;62287;50.858;0.252;2022-11-15T02:55:01;100113.54;;;16.53;42.71
73936;BME280;62287;50.858;0.252;2022-11-15T02:55:33;100113.93;;;16.54;42.71
73936;BME280;62287;50.858;0.252;2022-11-15T02:56:07;100112.61;;;15.94;42.76
73936;BME280;62287;50.858;0.252;2022-11-15T02:56:40;100111.06;;;16.28;41.55
73936;BME280;62287;50.858;0.252;2022-11-15T02:57:15;100114.68;;;16.56;42.31
73936;BME280;62287;50.858;0.252;2022-11-15T02:57:52;100114.67;;;16.09;41.77
73936;BME280;62287;50.858;0.252;2022-11-15T02:58:38;100113.06;;;16.22;42.63
73936;BME280;62287;50.858;0.252;2022-11-15T02:59:20;100116.21;;;16.28;42.53
73936;BME280;62287;50.858;0.252;2022-11-15T03:00:03;100116.56;;;16.54;42.60